Time;durP1;ratioP1;P1;durP2;ratioP2;P2;SDS_P1;SDS_P2;PMS_P1;PMS_P2;Temp;Humidity;BMP_temperature;BMP_pressure;BME280_temperature;BME280_humidity;BME280_pressure;Samples;Min_cycle;Max_cycle;Signal;HPM_P1;HPM_P2
2024/01/02 00:00:54;;;;;;;15.75;11.55;;;;;;;;;;5090220;28;20513;-69
2024/01/02 00:03:22;;;;;;;6.45;5.85;;;;;;;;;;5089119;28;20081;-71
2024/01/02 00:05:49;;;;;;;14.88;10.50;;;;;;;;;;5089556;28;20036;-71
2024/01/02 00:08:15;;;;;;;12.93;9.48;;;;;;;;;;5088266;28;20036;-69
2024/01/02 00:10:43;;;;;;;15.40;10.43;;;;;;;;;;5089308;28;20079;-69
2024/01/02 00:13:09;;;;;;;14.43;9.07;;;;;;;;;;5089136;28;20063;-69
2024/01/02 00:15:35;;;;;;;6.25;5.38;;;;;;;;;;5087895;28;20074;-69
2024/01/02 00:18:02;;;;;;;10.95;8.00;;;;;;;;;;5071006;28;20060;-70
2024/01/02 00:20:29;;;;;;;11.95;8.82;;;;;;;;;;5070962;28;20051;-69
2024/01/02 00:22:55;;;;;;;8.50;6.72;;;;;;;;;;5088107;28;20036;-69
2024/01/02 00:25:22;;;;;;;15.38;9.80;;;;;;;;;;5089062;28;20109;-70
2024/01/02 00:27:48;;;;;;;9.90;6.97;;;;;;;;;;5089834;28;20036;-70
2024/01/02 00:30:14;;;;;;;11.85;9.73;;;;;;;;;;5096561;28;20051;-69
2024/01/02 00:32:41;;;;;;;17.67;10.52;;;;;;;;;;5110439;28;20043;-70
2024/01/02 00:35:07;;;;;;;12.07;8.43;;;;;;;;;;5077081;28;20036;-70
2024/01/02 00:37:33;;;;;;;10.20;8.65;;;;;;;;;;5089704;28;20393;-70
2024/01/02 00:39:59;;;;;;;13.73;11.38;;;;;;;;;;5072869;28;20046;-70
2024/01/02 00:42:25;;;;;;;18.48;11.15;;;;;;;;;;5089052;28;20028;-70
2024/01/02 00:44:51;;;;;;;16.25;10.35;;;;;;;;;;5089113;28;20488;-69
2024/01/02 00:47:21;;;;;;;11.55;7.97;;;;;;;;;;5089163;28;20080;-69
2024/01/02 00:49:48;;;;;;;11.00;9.02;;;;;;;;;;5089999;28;20040;-70
2024/01/02 00:52:14;;;;;;;13.52;10.43;;;;;;;;;;5089740;28;20043;-69
2024/01/02 00:54:40;;;;;;;11.52;9.07;;;;;;;;;;5089705;28;20047;-70
2024/01/02 00:57:07;;;;;;;7.00;5.25;;;;;;;;;;5071523;28;20043;-70
2024/01/02 00:59:33;;;;;;;6.90;6.20;;;;;;;;;;5089024;28;20495;-70
2024/01/02 01:01:59;;;;;;;11.48;8.80;;;;;;;;;;5071341;28;20043;-69
2024/01/02 01:04:25;;;;;;;15.02;11.70;;;;;;;;;;5070579;28;20040;-70
2024/01/02 01:06:51;;;;;;;13.48;9.60;;;;;;;;;;5087829;28;20036;-70
2024/01/02 01:09:18;;;;;;;13.65;9.38;;;;;;;;;;5087084;28;20447;-70
2024/01/02 01:11:44;;;;;;;13.93;10.75;;;;;;;;;;5088118;28;20423;-69
2024/01/02 01:14:10;;;;;;;10.60;9.13;;;;;;;;;;5088569;28;20017;-70
2024/01/02 01:16:37;;;;;;;11.00;8.73;;;;;;;;;;5086912;28;20086;-70
2024/01/02 01:19:03;;;;;;;6.88;6.10;;;;;;;;;;5070375;28;20028;-69
2024/01/02 01:21:29;;;;;;;10.57;7.45;;;;;;;;;;5088510;28;20036;-69
2024/01/02 01:23:55;;;;;;;8.18;7.13;;;;;;;;;;5087183;28;20059;-70
2024/01/02 01:26:21;;;;;;;5.78;5.18;;;;;;;;;;5088913;28;20043;-70
2024/01/02 01:28:48;;;;;;;9.25;7.25;;;;;;;;;;5088150;28;20039;-70
2024/01/02 01:31:13;;;;;;;7.15;4.75;;;;;;;;;;5087982;28;20044;-69
2024/01/02 01:33:39;;;;;;;3.58;3.38;;;;;;;;;;5088295;28;20043;-70
2024/01/02 01:36:06;;;;;;;10.07;8.43;;;;;;;;;;5070348;28;20036;-69
2024/01/02 01:38:31;;;;;;;11.35;9.50;;;;;;;;;;5088264;28;20090;-69
2024/01/02 01:40:57;;;;;;;11.85;7.50;;;;;;;;;;5088552;28;20025;-70
2024/01/02 01:43:23;;;;;;;9.63;8.32;;;;;;;;;;5090920;28;20044;-69
2024/01/02 01:45:49;;;;;;;9.35;8.35;;;;;;;;;;5088199;28;20407;-69
2024/01/02 01:48:14;;;;;;;10.18;8.45;;;;;;;;;;5070498;28;20127;-70
2024/01/02 01:50:41;;;;;;;9.18;8.27;;;;;;;;;;5087372;28;20036;-70
2024/01/02 01:53:06;;;;;;;12.77;8.90;;;;;;;;;;5088865;28;20052;-71
2024/01/02 01:55:33;;;;;;;14.43;10.68;;;;;;;;;;5087415;28;20036;-72
2024/01/02 01:57:58;;;;;;;8.75;6.65;;;;;;;;;;5070603;28;20039;-71
2024/01/02 02:00:24;;;;;;;11.40;9.70;;;;;;;;;;5086531;28;20122;-70
2024/01/02 02:02:50;;;;;;;10.30;7.82;;;;;;;;;;5088088;28;20032;-70
2024/01/02 02:05:17;;;;;;;11.63;7.57;;;;;;;;;;5088217;28;20035;-70
2024/01/02 02:07:43;;;;;;;13.90;9.55;;;;;;;;;;5086125;28;20036;-70
2024/01/02 02:10:09;;;;;;;12.23;9.15;;;;;;;;;;5088925;28;20055;-70
2024/01/02 02:12:35;;;;;;;8.90;7.57;;;;;;;;;;5086267;28;20039;-71
2024/01/02 02:15:01;;;;;;;6.85;4.40;;;;;;;;;;5087979;28;20554;-69
2024/01/02 02:17:28;;;;;;;12.82;10.30;;;;;;;;;;5086897;28;20078;-70
2024/01/02 02:19:55;;;;;;;10.85;7.30;;;;;;;;;;5089666;28;20804;-69
2024/01/02 02:22:22;;;;;;;6.03;5.30;;;;;;;;;;5073383;28;20059;-69
2024/01/02 02:24:48;;;;;;;10.90;8.20;;;;;;;;;;5091271;28;20111;-70
2024/01/02 02:27:14;;;;;;;12.38;10.45;;;;;;;;;;5091734;28;20131;-70
2024/01/02 02:29:40;;;;;;;12.73;9.77;;;;;;;;;;5073896;28;20028;-72
2024/01/02 02:32:06;;;;;;;7.63;6.90;;;;;;;;;;5090754;28;20475;-70
2024/01/02 02:34:32;;;;;;;12.15;9.50;;;;;;;;;;5074767;28;20032;-69
2024/01/02 02:36:59;;;;;;;10.98;9.70;;;;;;;;;;5093645;28;20093;-70
2024/01/02 02:39:26;;;;;;;3.63;3.42;;;;;;;;;;5090456;28;20517;-70
2024/01/02 02:41:52;;;;;;;13.60;8.07;;;;;;;;;;5091635;28;20115;-72
2024/01/02 02:44:18;;;;;;;14.40;7.93;;;;;;;;;;5089830;28;20120;-70
2024/01/02 02:46:43;;;;;;;13.95;8.55;;;;;;;;;;5090788;28;20059;-69
2024/01/02 02:49:09;;;;;;;6.07;4.20;;;;;;;;;;5091582;28;20090;-70
2024/01/02 02:51:36;;;;;;;32.60;16.60;;;;;;;;;;5089999;28;20043;-69
2024/01/02 02:54:02;;;;;;;37.80;19.52;;;;;;;;;;5077042;28;20114;-69
2024/01/02 02:56:28;;;;;;;32.88;16.98;;;;;;;;;;5111973;28;20185;-71
2024/01/02 02:58:54;;;;;;;32.85;15.52;;;;;;;;;;5115814;28;20039;-69
2024/01/02 03:01:23;;;;;;;9.52;8.05;;;;;;;;;;5115550;28;20031;-69
2024/01/02 03:03:49;;;;;;;12.25;9.95;;;;;;;;;;5110196;28;20126;-69
2024/01/02 03:06:15;;;;;;;9.88;8.85;;;;;;;;;;5111443;28;20119;-69
2024/01/02 03:08:41;;;;;;;4.82;4.32;;;;;;;;;;5111255;28;20032;-69
2024/01/02 03:11:06;;;;;;;9.60;8.52;;;;;;;;;;5111368;28;20701;-71
2024/01/02 03:13:32;;;;;;;10.00;7.93;;;;;;;;;;5103164;28;20067;-69
2024/01/02 03:15:58;;;;;;;8.52;7.13;;;;;;;;;;5070727;28;20036;-70
2024/01/02 03:18:24;;;;;;;8.77;5.93;;;;;;;;;;5071669;28;20048;-70
2024/01/02 03:20:50;;;;;;;8.30;7.43;;;;;;;;;;5074654;28;20021;-70
2024/01/02 03:23:16;;;;;;;5.15;4.72;;;;;;;;;;5073615;28;20089;-71
2024/01/02 03:25:42;;;;;;;2.38;2.30;;;;;;;;;;5077331;28;20024;-70
2024/01/02 03:28:08;;;;;;;10.45;6.80;;;;;;;;;;5069511;28;20135;-70
2024/01/02 03:30:34;;;;;;;11.18;9.85;;;;;;;;;;5070713;28;20036;-69
2024/01/02 03:32:59;;;;;;;8.50;7.45;;;;;;;;;;5071404;28;20059;-70
2024/01/02 03:35:26;;;;;;;4.05;3.75;;;;;;;;;;5052434;28;20025;-70
2024/01/02 03:37:54;;;;;;;5.25;4.60;;;;;;;;;;5053801;28;20032;-72
2024/01/02 03:40:20;;;;;;;10.25;8.88;;;;;;;;;;5070419;28;20039;-71
2024/01/02 03:42:46;;;;;;;10.65;8.85;;;;;;;;;;5052323;28;20479;-70
2024/01/02 03:45:12;;;;;;;3.95;3.75;;;;;;;;;;5071666;28;20124;-70
2024/01/02 03:47:38;;;;;;;9.10;6.70;;;;;;;;;;5069345;28;20439;-71
2024/01/02 03:50:04;;;;;;;6.35;5.40;;;;;;;;;;5070608;28;20045;-71
2024/01/02 03:52:31;;;;;;;5.03;4.63;;;;;;;;;;5069914;28;20036;-70
2024/01/02 03:54:57;;;;;;;11.02;9.32;;;;;;;;;;5076577;28;20036;-71
2024/01/02 03:57:23;;;;;;;4.85;4.40;;;;;;;;;;5089058;28;20032;-70
2024/01/02 03:59:49;;;;;;;3.38;3.22;;;;;;;;;;5076211;28;20086;-70
2024/01/02 04:02:15;;;;;;;5.07;4.03;;;;;;;;;;5069695;28;20523;-71
2024/01/02 04:04:41;;;;;;;8.70;5.40;;;;;;;;;;5069220;28;20041;-70
2024/01/02 04:07:07;;;;;;;4.47;4.18;;;;;;;;;;5084200;28;20122;-71
2024/01/02 04:09:33;;;;;;;6.35;5.75;;;;;;;;;;5089966;28;20575;-71
2024/01/02 04:11:59;;;;;;;10.20;7.40;;;;;;;;;;5090065;28;20122;-72
2024/01/02 04:14:25;;;;;;;4.00;3.55;;;;;;;;;;5071850;28;20024;-71
2024/01/02 04:16:51;;;;;;;7.45;4.55;;;;;;;;;;5089658;28;20120;-71
2024/01/02 04:19:17;;;;;;;8.95;6.40;;;;;;;;;;5071602;28;20038;-72
2024/01/02 04:21:43;;;;;;;3.92;3.67;;;;;;;;;;5089607;28;20059;-71
2024/01/02 04:24:09;;;;;;;5.97;5.45;;;;;;;;;;5089885;28;20028;-71
2024/01/02 04:26:35;;;;;;;7.57;6.07;;;;;;;;;;5089083;28;20503;-71
2024/01/02 04:29:01;;;;;;;6.25;5.50;;;;;;;;;;5089825;28;20039;-70
2024/01/02 04:31:27;;;;;;;7.38;6.68;;;;;;;;;;5090213;28;20044;-69
2024/01/02 04:33:53;;;;;;;9.23;8.13;;;;;;;;;;5090153;28;20633;-70
2024/01/02 04:36:19;;;;;;;7.18;6.57;;;;;;;;;;5091627;28;20042;-70
2024/01/02 04:38:45;;;;;;;4.80;4.35;;;;;;;;;;5092165;28;20046;-71
2024/01/02 04:41:12;;;;;;;9.02;8.02;;;;;;;;;;5090889;28;20054;-69
2024/01/02 04:43:38;;;;;;;7.85;5.90;;;;;;;;;;5089719;28;20039;-73
2024/01/02 04:46:05;;;;;;;6.38;5.78;;;;;;;;;;5088798;28;20047;-70
2024/01/02 04:48:30;;;;;;;5.97;5.40;;;;;;;;;;5087592;28;20418;-70
2024/01/02 04:50:56;;;;;;;8.13;6.53;;;;;;;;;;5087563;28;20036;-70
2024/01/02 04:53:22;;;;;;;9.77;7.30;;;;;;;;;;5089041;28;20459;-70
2024/01/02 04:55:48;;;;;;;5.55;4.60;;;;;;;;;;5087949;28;20043;-70
2024/01/02 04:58:14;;;;;;;4.50;4.20;;;;;;;;;;5089238;28;20032;-70
2024/01/02 05:00:40;;;;;;;10.40;8.48;;;;;;;;;;5070202;28;20028;-70
2024/01/02 05:03:06;;;;;;;4.03;3.75;;;;;;;;;;5088862;28;20036;-71
2024/01/02 05:05:31;;;;;;;7.32;6.43;;;;;;;;;;5087196;28;20031;-71
2024/01/02 05:07:58;;;;;;;5.30;4.90;;;;;;;;;;5088177;28;20453;-71
2024/01/02 05:10:23;;;;;;;7.95;7.15;;;;;;;;;;5088333;28;20160;-71
2024/01/02 05:12:50;;;;;;;7.95;7.15;;;;;;;;;;5086815;28;20445;-70
2024/01/02 05:15:17;;;;;;;4.80;4.40;;;;;;;;;;5067057;28;20139;-70
2024/01/02 05:17:43;;;;;;;9.52;6.25;;;;;;;;;;5066620;28;20048;-70
2024/01/02 05:20:09;;;;;;;9.23;6.63;;;;;;;;;;5068295;28;20066;-71
2024/01/02 05:22:35;;;;;;;8.68;6.68;;;;;;;;;;5068414;28;20586;-70
2024/01/02 05:25:01;;;;;;;5.55;4.53;;;;;;;;;;5068032;28;20040;-70
2024/01/02 05:27:27;;;;;;;9.23;8.27;;;;;;;;;;5066998;28;20029;-70
2024/01/02 05:29:53;;;;;;;10.32;7.75;;;;;;;;;;5050039;28;20416;-70
2024/01/02 05:32:20;;;;;;;8.55;7.72;;;;;;;;;;5068151;28;20064;-70
2024/01/02 05:34:45;;;;;;;7.93;5.50;;;;;;;;;;5083440;28;20033;-70
2024/01/02 05:37:11;;;;;;;9.10;7.60;;;;;;;;;;5068092;28;20563;-70
2024/01/02 05:39:37;;;;;;;9.88;8.88;;;;;;;;;;5067915;28;20071;-70
2024/01/02 05:42:03;;;;;;;4.97;4.28;;;;;;;;;;5068005;28;20093;-70
2024/01/02 05:44:29;;;;;;;8.10;6.65;;;;;;;;;;5066995;28;20040;-70
2024/01/02 05:46:55;;;;;;;5.70;5.18;;;;;;;;;;5067712;28;20137;-70
2024/01/02 05:49:21;;;;;;;6.80;5.95;;;;;;;;;;5083771;28;21003;-70
2024/01/02 05:51:47;;;;;;;8.93;6.20;;;;;;;;;;5087884;28;20044;-71
2024/01/02 05:54:13;;;;;;;8.00;5.63;;;;;;;;;;5109457;28;20064;-69
2024/01/02 05:56:39;;;;;;;11.20;4.85;;;;;;;;;;5112454;28;20552;-70
2024/01/02 05:59:05;;;;;;;5.75;5.30;;;;;;;;;;5112867;28;20040;-71
2024/01/02 06:01:31;;;;;;;11.52;7.43;;;;;;;;;;5112522;28;20031;-70
2024/01/02 06:03:56;;;;;;;6.63;6.03;;;;;;;;;;5112245;28;20046;-71
2024/01/02 06:06:23;;;;;;;5.50;4.95;;;;;;;;;;5112418;28;20134;-71
2024/01/02 06:08:49;;;;;;;8.02;6.13;;;;;;;;;;5112459;28;20083;-71
2024/01/02 06:11:15;;;;;;;7.47;5.65;;;;;;;;;;5091455;28;20180;-68
2024/01/02 06:13:42;;;;;;;6.22;4.80;;;;;;;;;;5103188;28;20024;-68
2024/01/02 06:16:10;;;;;;;3.58;3.33;;;;;;;;;;5090274;28;20043;-69
2024/01/02 06:18:36;;;;;;;7.35;6.57;;;;;;;;;;5085229;28;20233;-68
2024/01/02 06:21:04;;;;;;;6.68;6.03;;;;;;;;;;5073812;28;20028;-68
2024/01/02 06:23:33;;;;;;;3.35;3.10;;;;;;;;;;5090398;28;20122;-69
2024/01/02 06:25:59;;;;;;;4.28;3.88;;;;;;;;;;5090271;28;20478;-68
2024/01/02 06:28:24;;;;;;;9.75;7.72;;;;;;;;;;5091124;28;20036;-68
2024/01/02 06:30:50;;;;;;;4.28;4.07;;;;;;;;;;5091260;28;20101;-68
2024/01/02 06:33:16;;;;;;;7.00;5.85;;;;;;;;;;5088805;28;20089;-68
2024/01/02 06:35:42;;;;;;;10.10;5.97;;;;;;;;;;5078729;28;20029;-68
2024/01/02 06:38:09;;;;;;;4.55;4.15;;;;;;;;;;5079697;28;20082;-74
2024/01/02 06:40:35;;;;;;;8.40;6.63;;;;;;;;;;5083046;28;20032;-73
2024/01/02 06:43:01;;;;;;;4.43;4.13;;;;;;;;;;5070734;28;20036;-72
2024/01/02 06:45:28;;;;;;;9.93;5.88;;;;;;;;;;5052192;28;20044;-73
2024/01/02 06:47:55;;;;;;;4.20;3.90;;;;;;;;;;5075218;28;20035;-73
2024/01/02 06:50:21;;;;;;;9.90;6.47;;;;;;;;;;5077720;28;20102;-73
2024/01/02 06:52:47;;;;;;;7.75;6.95;;;;;;;;;;5069684;28;20515;-73
2024/01/02 06:55:13;;;;;;;9.60;4.55;;;;;;;;;;5072434;28;20059;-72
2024/01/02 06:57:39;;;;;;;7.05;6.40;;;;;;;;;;5087166;28;20123;-73
2024/01/02 07:00:06;;;;;;;8.73;6.55;;;;;;;;;;5071756;28;20127;-72
2024/01/02 07:02:32;;;;;;;6.72;5.55;;;;;;;;;;5090550;28;20042;-75
2024/01/02 07:04:59;;;;;;;4.00;3.70;;;;;;;;;;5091376;28;20127;-72
2024/01/02 07:07:25;;;;;;;11.23;5.43;;;;;;;;;;5087645;28;20529;-73
2024/01/02 07:09:50;;;;;;;13.18;6.97;;;;;;;;;;5088144;28;20130;-71
2024/01/02 07:12:17;;;;;;;4.45;4.07;;;;;;;;;;5092210;28;20044;-73
2024/01/02 07:14:43;;;;;;;8.57;7.70;;;;;;;;;;5082966;28;20519;-74
2024/01/02 07:17:09;;;;;;;6.50;5.90;;;;;;;;;;5078364;28;20123;-73
2024/01/02 07:19:35;;;;;;;9.57;8.45;;;;;;;;;;5079748;28;20542;-73
2024/01/02 07:22:00;;;;;;;6.57;5.95;;;;;;;;;;5080012;28;20094;-73
2024/01/02 07:24:26;;;;;;;10.18;8.40;;;;;;;;;;5081592;28;20094;-72
2024/01/02 07:26:52;;;;;;;9.52;8.38;;;;;;;;;;5096424;28;20043;-71
2024/01/02 07:29:18;;;;;;;8.85;4.68;;;;;;;;;;5076078;28;20114;-73
2024/01/02 07:31:44;;;;;;;6.00;5.50;;;;;;;;;;5087828;28;20052;-73
2024/01/02 07:34:12;;;;;;;6.00;5.25;;;;;;;;;;5090146;28;20092;-73
2024/01/02 07:36:39;;;;;;;8.50;6.13;;;;;;;;;;5084952;28;20043;-73
2024/01/02 07:39:05;;;;;;;10.45;8.57;;;;;;;;;;5069428;28;20063;-73
2024/01/02 07:41:30;;;;;;;8.75;7.65;;;;;;;;;;5085919;28;20063;-74
2024/01/02 07:43:57;;;;;;;12.27;6.45;;;;;;;;;;5069792;28;20067;-74
2024/01/02 07:46:23;;;;;;;9.35;7.78;;;;;;;;;;5089166;28;20064;-74
2024/01/02 07:48:49;;;;;;;8.23;7.10;;;;;;;;;;5088791;28;20480;-73
2024/01/02 07:51:15;;;;;;;6.93;6.30;;;;;;;;;;5089409;28;20143;-74
2024/01/02 07:53:41;;;;;;;12.13;8.55;;;;;;;;;;5105421;28;20031;-74
2024/01/02 07:56:07;;;;;;;5.63;4.75;;;;;;;;;;5088955;28;20040;-73
2024/01/02 07:58:33;;;;;;;9.00;7.28;;;;;;;;;;5088216;28;20107;-73
2024/01/02 08:00:59;;;;;;;13.05;7.75;;;;;;;;;;5108134;28;20040;-74
2024/01/02 08:03:24;;;;;;;14.43;8.15;;;;;;;;;;5080585;28;20044;-74
2024/01/02 08:05:50;;;;;;;11.55;5.47;;;;;;;;;;5089649;28;20066;-74
2024/01/02 08:08:16;;;;;;;9.70;6.65;;;;;;;;;;5073213;28;20040;-74
2024/01/02 08:10:42;;;;;;;6.90;6.30;;;;;;;;;;5069272;28;20072;-71
2024/01/02 08:13:08;;;;;;;5.28;4.78;;;;;;;;;;5069298;28;20048;-73
2024/01/02 08:15:34;;;;;;;9.07;6.18;;;;;;;;;;5088708;28;20042;-73
2024/01/02 08:18:00;;;;;;;5.70;4.55;;;;;;;;;;5087083;28;20046;-72
2024/01/02 08:20:25;;;;;;;9.55;7.18;;;;;;;;;;5069220;28;20093;-74
2024/01/02 08:22:51;;;;;;;10.50;8.30;;;;;;;;;;5086788;28;20117;-72
2024/01/02 08:25:17;;;;;;;17.33;10.88;;;;;;;;;;5088385;28;20047;-72
2024/01/02 08:27:44;;;;;;;13.77;10.10;;;;;;;;;;5088258;28;20095;-73
2024/01/02 08:30:10;;;;;;;15.88;10.95;;;;;;;;;;5087732;28;20146;-74
2024/01/02 08:32:36;;;;;;;6.88;5.97;;;;;;;;;;5086556;28;20093;-73
2024/01/02 08:35:02;;;;;;;10.52;9.23;;;;;;;;;;5086753;28;20028;-74
2024/01/02 08:37:29;;;;;;;13.57;10.77;;;;;;;;;;5087552;28;20723;-71
2024/01/02 08:39:55;;;;;;;13.50;10.20;;;;;;;;;;5089299;28;20077;-72
2024/01/02 08:42:23;;;;;;;10.20;9.18;;;;;;;;;;5082680;28;20086;-73
2024/01/02 08:44:49;;;;;;;7.00;5.45;;;;;;;;;;5070511;28;20133;-72
2024/01/02 08:47:15;;;;;;;10.55;8.00;;;;;;;;;;5069144;28;20047;-73
2024/01/02 08:49:41;;;;;;;5.95;5.35;;;;;;;;;;5067358;28;20044;-73
2024/01/02 08:52:07;;;;;;;7.53;6.03;;;;;;;;;;5073587;28;20575;-73
2024/01/02 08:54:33;;;;;;;14.52;8.23;;;;;;;;;;5066095;28;20024;-73
2024/01/02 08:56:59;;;;;;;9.35;8.02;;;;;;;;;;5060607;28;20097;-73
2024/01/02 08:59:25;;;;;;;8.35;6.53;;;;;;;;;;5078031;28;20101;-73
2024/01/02 09:01:51;;;;;;;14.85;8.27;;;;;;;;;;5089293;28;20036;-74
2024/01/02 09:04:17;;;;;;;4.90;4.50;;;;;;;;;;5098367;28;20506;-73
2024/01/02 09:06:44;;;;;;;7.53;5.63;;;;;;;;;;5088219;28;20584;-74
2024/01/02 09:09:12;;;;;;;5.65;4.97;;;;;;;;;;5037256;28;20033;-75
2024/01/02 09:11:38;;;;;;;6.32;5.80;;;;;;;;;;5071262;28;20040;-74
2024/01/02 09:14:04;;;;;;;8.30;6.28;;;;;;;;;;5086055;28;20038;-73
2024/01/02 09:16:30;;;;;;;8.40;7.32;;;;;;;;;;5088186;28;20036;-75
2024/01/02 09:18:57;;;;;;;5.30;4.80;;;;;;;;;;5083817;28;20036;-74
2024/01/02 09:21:22;;;;;;;7.13;6.20;;;;;;;;;;5088571;28;20040;-73
2024/01/02 09:23:48;;;;;;;13.63;8.98;;;;;;;;;;5067093;28;20029;-73
2024/01/02 09:26:14;;;;;;;4.72;4.43;;;;;;;;;;5074193;28;20119;-74
2024/01/02 09:28:41;;;;;;;9.68;7.05;;;;;;;;;;5081530;28;20445;-75
2024/01/02 09:31:07;;;;;;;10.10;6.15;;;;;;;;;;5083263;28;20535;-73
2024/01/02 09:33:33;;;;;;;9.85;8.18;;;;;;;;;;5098466;28;20035;-75
2024/01/02 09:35:59;;;;;;;11.20;8.55;;;;;;;;;;5081550;28;20457;-74
2024/01/02 09:38:25;;;;;;;10.55;8.30;;;;;;;;;;5084349;28;20035;-72
2024/01/02 09:41:03;;;;;;;7.72;6.93;;;;;;;;;;5088087;28;20504;-73
2024/01/02 09:43:32;;;;;;;10.10;7.30;;;;;;;;;;5076145;28;20430;-71
2024/01/02 09:46:04;;;;;;;6.65;5.65;;;;;;;;;;5070276;28;20085;-72
2024/01/02 09:48:30;;;;;;;7.03;5.43;;;;;;;;;;5048737;28;20093;-74
2024/01/02 09:51:11;;;;;;;11.45;7.90;;;;;;;;;;5072209;28;20563;-72
2024/01/02 09:53:37;;;;;;;5.95;5.25;;;;;;;;;;5085176;28;20119;-73
2024/01/02 09:56:10;;;;;;;11.52;7.88;;;;;;;;;;5091220;28;20043;-73
2024/01/02 09:58:55;;;;;;;12.00;7.60;;;;;;;;;;5074386;28;20085;-72
2024/01/02 10:01:27;;;;;;;7.00;6.32;;;;;;;;;;5095504;28;20507;-73
2024/01/02 10:04:01;;;;;;;10.90;7.88;;;;;;;;;;5093252;28;20101;-72
2024/01/02 10:06:46;;;;;;;4.43;4.03;;;;;;;;;;5090363;28;20043;-72
2024/01/02 10:09:21;;;;;;;10.40;7.95;;;;;;;;;;5079748;28;20178;-72
2024/01/02 10:11:50;;;;;;;7.90;5.60;;;;;;;;;;5054789;28;20053;-73
2024/01/02 10:14:16;;;;;;;6.15;5.55;;;;;;;;;;5077992;28;20027;-72
2024/01/02 10:16:47;;;;;;;6.60;5.50;;;;;;;;;;5079976;28;20468;-73
2024/01/02 10:19:12;;;;;;;4.40;4.10;;;;;;;;;;5077220;28;20072;-72
2024/01/02 10:22:05;;;;;;;6.00;4.90;;;;;;;;;;5080249;28;20384;-72
2024/01/02 10:24:44;;;;;;;12.93;6.50;;;;;;;;;;5074753;28;20508;-73
2024/01/02 10:27:12;;;;;;;7.30;6.10;;;;;;;;;;5069569;28;20504;-72
2024/01/02 10:30:06;;;;;;;8.73;6.05;;;;;;;;;;5078651;28;20028;-72
2024/01/02 10:32:40;;;;;;;6.57;5.88;;;;;;;;;;5063208;28;20181;-72
2024/01/02 10:35:10;;;;;;;9.50;8.07;;;;;;;;;;5081660;28;20043;-74
2024/01/02 10:37:40;;;;;;;11.43;8.00;;;;;;;;;;5077861;28;20112;-71
2024/01/02 10:40:09;;;;;;;12.88;10.43;;;;;;;;;;5078761;28;20035;-72
2024/01/02 10:42:48;;;;;;;11.90;7.05;;;;;;;;;;5076751;28;20029;-71
2024/01/02 10:45:21;;;;;;;10.65;7.50;;;;;;;;;;5080068;28;20028;-73
2024/01/02 10:47:47;;;;;;;10.15;7.18;;;;;;;;;;5079649;28;20114;-74
2024/01/02 10:50:15;;;;;;;9.30;8.35;;;;;;;;;;5078630;28;20655;-72
2024/01/02 10:53:06;;;;;;;8.30;5.63;;;;;;;;;;5065725;28;20041;-73
2024/01/02 10:55:40;;;;;;;5.88;4.45;;;;;;;;;;5081996;28;20687;-72
2024/01/02 10:58:07;;;;;;;7.95;7.10;;;;;;;;;;5080954;28;20028;-73
2024/01/02 11:00:34;;;;;;;8.73;6.55;;;;;;;;;;5082559;28;20036;-73
2024/01/02 11:03:12;;;;;;;6.07;5.55;;;;;;;;;;5081235;28;20036;-73
2024/01/02 11:05:46;;;;;;;12.48;8.00;;;;;;;;;;5079319;28;20028;-72
2024/01/02 11:08:17;;;;;;;6.47;4.97;;;;;;;;;;5076283;28;20037;-71
2024/01/02 11:10:55;;;;;;;9.13;4.45;;;;;;;;;;5079743;28;20032;-71
2024/01/02 11:13:22;;;;;;;6.78;6.10;;;;;;;;;;5058764;28;20068;-71
2024/01/02 11:15:48;;;;;;;6.05;4.72;;;;;;;;;;5081190;28;20059;-71
2024/01/02 11:18:14;;;;;;;8.85;7.35;;;;;;;;;;5077864;28;20028;-70
2024/01/02 11:20:46;;;;;;;8.80;6.03;;;;;;;;;;5078871;28;20040;-71
2024/01/02 11:23:13;;;;;;;7.80;5.75;;;;;;;;;;5077741;28;20031;-72
2024/01/02 11:25:59;;;;;;;10.63;7.53;;;;;;;;;;5079191;28;20504;-72
2024/01/02 11:28:26;;;;;;;9.68;8.07;;;;;;;;;;5084840;28;20036;-72
2024/01/02 11:30:52;;;;;;;9.77;8.25;;;;;;;;;;5073120;28;20048;-71
2024/01/02 11:33:30;;;;;;;11.85;6.35;;;;;;;;;;5082559;28;20068;-71
2024/01/02 11:35:56;;;;;;;9.73;6.95;;;;;;;;;;5078550;28;20055;-71
2024/01/02 11:38:23;;;;;;;15.13;6.72;;;;;;;;;;5078691;28;20492;-71
2024/01/02 11:40:55;;;;;;;12.98;8.70;;;;;;;;;;5077108;28;20036;-71
2024/01/02 11:43:48;;;;;;;16.67;8.73;;;;;;;;;;5077268;28;20111;-72
2024/01/02 11:46:17;;;;;;;10.93;8.40;;;;;;;;;;5076180;28;20044;-71
2024/01/02 11:48:52;;;;;;;9.45;8.48;;;;;;;;;;5044205;28;20031;-72
2024/01/02 11:51:18;;;;;;;11.85;6.43;;;;;;;;;;5095968;28;20083;-71
2024/01/02 11:54:03;;;;;;;8.18;7.35;;;;;;;;;;5079101;28;20037;-71
2024/01/02 11:56:29;;;;;;;6.68;6.05;;;;;;;;;;5094434;28;20735;-70
2024/01/02 11:58:58;;;;;;;10.02;7.03;;;;;;;;;;5086572;28;20443;-71
2024/01/02 12:01:27;;;;;;;12.30;6.72;;;;;;;;;;5081601;28;20157;-70
2024/01/02 12:03:59;;;;;;;9.23;7.85;;;;;;;;;;5078214;28;20024;-71
2024/01/02 12:06:30;;;;;;;11.85;7.40;;;;;;;;;;5086901;28;20083;-71
2024/01/02 12:08:56;;;;;;;;;;;;;;;;;;5076924;28;20500;-71
2024/01/02 12:11:22;;;;;;;12.50;8.18;;;;;;;;;;5078278;28;19920;-72
2024/01/02 12:13:52;;;;;;;10.75;8.32;;;;;;;;;;5081838;28;20028;-72
2024/01/02 12:16:18;;;;;;;6.57;6.00;;;;;;;;;;5078123;28;20530;-72
2024/01/02 12:18:45;;;;;;;11.30;6.75;;;;;;;;;;5079301;28;20074;-71
2024/01/02 12:21:13;;;;;;;9.77;7.22;;;;;;;;;;5079456;28;20036;-72
2024/01/02 12:23:39;;;;;;;8.95;6.90;;;;;;;;;;5060413;28;20021;-71
2024/01/02 12:26:05;;;;;;;11.73;7.22;;;;;;;;;;5061459;28;20040;-71
2024/01/02 12:28:32;;;;;;;11.65;7.63;;;;;;;;;;5076449;28;20043;-71
2024/01/02 12:30:57;;;;;;;6.82;5.85;;;;;;;;;;5076617;28;20136;-71
2024/01/02 12:33:31;;;;;;;13.68;7.05;;;;;;;;;;5079112;28;20167;-70
2024/01/02 12:36:07;;;;;;;8.30;7.13;;;;;;;;;;5076224;28;20174;-71
2024/01/02 12:38:50;;;;;;;13.13;8.70;;;;;;;;;;5076199;28;20032;-72
2024/01/02 12:41:22;;;;;;;10.43;8.25;;;;;;;;;;5077867;28;20517;-73
2024/01/02 12:43:57;;;;;;;16.80;12.15;;;;;;;;;;5078873;28;20101;-71
2024/01/02 12:46:37;;;;;;;12.90;8.68;;;;;;;;;;5076369;28;20032;-71
2024/01/02 12:49:07;;;;;;;10.23;6.93;;;;;;;;;;5074869;28;20158;-70
2024/01/02 12:51:33;;;;;;;10.48;7.20;;;;;;;;;;5077604;28;20073;-71
2024/01/02 12:54:00;;;;;;;6.10;5.50;;;;;;;;;;5076249;28;20127;-71
2024/01/02 12:56:26;;;;;;;6.68;5.97;;;;;;;;;;5079770;28;20419;-74
2024/01/02 12:58:52;;;;;;;4.47;4.05;;;;;;;;;;5079786;28;20039;-72
2024/01/02 13:01:19;;;;;;;3.25;2.88;;;;;;;;;;5076730;28;20521;-72
2024/01/02 13:03:46;;;;;;;9.77;7.20;;;;;;;;;;5079429;28;20036;-72
2024/01/02 13:06:13;;;;;;;6.32;5.72;;;;;;;;;;5075813;28;20035;-72
2024/01/02 13:08:39;;;;;;;7.90;6.03;;;;;;;;;;5078067;28;20032;-72
2024/01/02 13:11:05;;;;;;;10.30;8.48;;;;;;;;;;5074759;28;20120;-72
2024/01/02 13:13:31;;;;;;;19.13;10.90;;;;;;;;;;5078884;28;20082;-71
2024/01/02 13:15:59;;;;;;;18.00;9.40;;;;;;;;;;5075588;28;20024;-72
2024/01/02 13:18:25;;;;;;;9.95;7.90;;;;;;;;;;5078971;28;20043;-73
2024/01/02 13:20:52;;;;;;;13.10;8.68;;;;;;;;;;5075416;28;20032;-72
2024/01/02 13:23:18;;;;;;;11.73;8.48;;;;;;;;;;5075296;28;20029;-72
2024/01/02 13:25:44;;;;;;;7.45;6.47;;;;;;;;;;5076577;28;20085;-73
2024/01/02 13:28:17;;;;;;;8.63;7.70;;;;;;;;;;5066695;28;20028;-72
2024/01/02 13:30:45;;;;;;;9.70;8.48;;;;;;;;;;5061970;28;20044;-72
2024/01/02 13:33:11;;;;;;;7.45;5.90;;;;;;;;;;5068093;28;20040;-73
2024/01/02 13:35:37;;;;;;;10.02;7.35;;;;;;;;;;5070951;28;20025;-72
2024/01/02 13:38:04;;;;;;;6.70;5.65;;;;;;;;;;5074006;28;20131;-69
2024/01/02 13:40:30;;;;;;;10.48;7.38;;;;;;;;;;5077546;28;20413;-71
2024/01/02 13:42:57;;;;;;;7.28;6.30;;;;;;;;;;5067251;28;20047;-70
2024/01/02 13:45:32;;;;;;;8.52;6.95;;;;;;;;;;5077770;28;20033;-71
2024/01/02 13:48:12;;;;;;;14.48;9.13;;;;;;;;;;5083125;28;20031;-71
2024/01/02 13:50:38;;;;;;;16.20;10.38;;;;;;;;;;5081611;28;20032;-71
2024/01/02 13:53:04;;;;;;;9.85;7.75;;;;;;;;;;5076787;28;20032;-71
2024/01/02 13:55:31;;;;;;;11.10;8.05;;;;;;;;;;5079379;28;20101;-70
2024/01/02 13:58:08;;;;;;;12.40;9.27;;;;;;;;;;5078681;28;20040;-70
2024/01/02 14:00:35;;;;;;;7.38;6.55;;;;;;;;;;5100410;28;20035;-71
2024/01/02 14:03:01;;;;;;;9.63;8.63;;;;;;;;;;5077007;28;20136;-72
2024/01/02 14:05:28;;;;;;;7.35;6.35;;;;;;;;;;5075209;28;20032;-72
2024/01/02 14:07:54;;;;;;;6.70;4.88;;;;;;;;;;5075316;28;20481;-71
2024/01/02 14:10:27;;;;;;;8.88;6.55;;;;;;;;;;5073610;28;20474;-69
2024/01/02 14:12:53;;;;;;;7.55;5.97;;;;;;;;;;5078394;28;20032;-71
2024/01/02 14:15:19;;;;;;;9.77;6.35;;;;;;;;;;5086718;28;20043;-72
2024/01/02 14:17:49;;;;;;;7.55;6.57;;;;;;;;;;5090253;28;20522;-72
2024/01/02 14:20:18;;;;;;;7.60;6.22;;;;;;;;;;5080989;28;20032;-72
2024/01/02 14:22:50;;;;;;;6.18;5.68;;;;;;;;;;5073642;28;20518;-72
2024/01/02 14:25:22;;;;;;;8.27;7.07;;;;;;;;;;5092339;28;20059;-72
2024/01/02 14:28:06;;;;;;;10.45;8.23;;;;;;;;;;5074435;28;20161;-72
2024/01/02 14:30:33;;;;;;;6.72;6.10;;;;;;;;;;5083656;28;20084;-72
2024/01/02 14:33:09;;;;;;;9.93;6.45;;;;;;;;;;5083407;28;20048;-72
2024/01/02 14:35:54;;;;;;;10.00;6.40;;;;;;;;;;5088836;28;20039;-71
2024/01/02 14:38:39;;;;;;;6.70;5.03;;;;;;;;;;5075639;28;20095;-72
2024/01/02 14:41:09;;;;;;;8.63;7.35;;;;;;;;;;5087067;28;20078;-71